Time,TemperatureF,DewpointF,PressureIn,WindDirection,WindDirectionDegrees,WindSpeedMPH,WindSpeedGustMPH,Humidity,HourlyPrecipIn,Conditions,Clouds,dailyrainin,SolarRadiationWatts/m^2,SoftwareType,DateUTC
2013-05-20 00:12:00,76.0,38.0,-100.00,SSE,157,5.0,7.0,25,0.00,,,0.00,0.000000,,2013-05-20 07:12:00,
2013-05-20 00:21:00,76.0,38.0,-100.00,SSE,157,5.0,7.0,25,0.00,,,0.00,0.000000,,2013-05-20 07:21:00,
2013-05-20 00:32:00,76.0,38.0,-100.00,SSE,157,5.0,7.0,25,0.00,,,0.00,0.000000,,2013-05-20 07:32:00,
2013-05-20 01:11:00,74.0,42.0,-100.00,SSE,155,4.0,8.0,32,0.00,,,0.00,0.000000,,2013-05-20 08:11:00,
2013-05-20 01:21:00,74.0,42.0,-100.00,SSE,155,4.0,8.0,32,0.00,,,0.00,0.000000,,2013-05-20 08:21:00,
2013-05-20 02:12:00,72.0,44.0,-100.00,SSE,166,4.0,6.0,37,0.00,,,0.00,0.000000,,2013-05-20 09:12:00,
2013-05-20 02:21:00,72.0,44.0,-100.00,SSE,166,4.0,6.0,37,0.00,,,0.00,0.000000,,2013-05-20 09:21:00,
2013-05-20 03:12:00,72.0,45.0,-100.00,SSW,195,5.0,7.0,38,0.00,,,0.00,0.000000,,2013-05-20 10:12:00,
2013-05-20 03:22:00,72.0,45.0,-100.00,SSW,195,5.0,7.0,38,0.00,,,0.00,0.000000,,2013-05-20 10:22:00,
2013-05-20 03:32:00,72.0,45.0,-100.00,SSW,195,5.0,7.0,38,0.00,,,0.00,0.000000,,2013-05-20 10:32:00,
2013-05-20 03:42:00,72.0,45.0,-100.00,SSW,195,5.0,7.0,38,0.00,,,0.00,0.000000,,2013-05-20 10:42:00,
2013-05-20 04:12:00,65.0,41.0,-100.00,West,265,3.0,6.0,42,0.00,,,0.00,0.000000,,2013-05-20 11:12:00,
2013-05-20 04:21:00,65.0,41.0,-100.00,West,265,3.0,6.0,42,0.00,,,0.00,0.000000,,2013-05-20 11:21:00,
2013-05-20 05:11:00,62.0,43.0,-100.00,North,1,3.0,7.0,49,-99.99,,,0.00,0.000000,,2013-05-20 12:11:00,
2013-05-20 05:21:00,62.0,43.0,-100.00,North,1,3.0,7.0,49,-99.99,,,0.00,0.000000,,2013-05-20 12:21:00,
2013-05-20 06:11:00,63.0,43.0,-100.00,NNW,345,5.0,8.0,48,-99.99,,,0.00,2.000000,,2013-05-20 13:11:00,
2013-05-20 07:11:00,70.0,44.0,-100.00,North,350,5.0,9.0,39,-99.99,,,0.00,116.000000,,2013-05-20 14:11:00,
2013-05-20 07:22:00,70.0,44.0,-100.00,North,350,5.0,9.0,39,-99.99,,,0.00,116.000000,,2013-05-20 14:22:00,
2013-05-20 07:31:00,70.0,44.0,-100.00,North,350,5.0,9.0,39,-99.99,,,0.00,116.000000,,2013-05-20 14:31:00,
2013-05-20 07:41:00,70.0,44.0,-100.00,North,350,5.0,9.0,39,-99.99,,,0.00,116.000000,,2013-05-20 14:41:00,
2013-05-20 08:11:00,78.0,44.0,-100.00,North,354,7.0,10.0,30,0.00,,,0.00,345.000000,,2013-05-20 15:11:00,
2013-05-20 08:21:00,78.0,44.0,-100.00,North,354,7.0,10.0,30,0.00,,,0.00,345.000000,,2013-05-20 15:21:00,
2013-05-20 08:33:00,78.0,44.0,-100.00,North,354,7.0,10.0,30,0.00,,,0.00,345.000000,,2013-05-20 15:33:00,
2013-05-20 08:42:00,78.0,44.0,-100.00,North,354,7.0,10.0,30,0.00,,,0.00,345.000000,,2013-05-20 15:42:00,
2013-05-20 09:12:00,83.0,38.0,-100.00,NNW,343,11.0,17.0,20,0.00,,,0.00,585.000000,,2013-05-20 16:12:00,
2013-05-20 09:22:00,83.0,38.0,-100.00,NNW,343,11.0,17.0,20,0.00,,,0.00,585.000000,,2013-05-20 16:22:00,
2013-05-20 09:33:00,83.0,38.0,-100.00,NNW,343,11.0,17.0,20,0.00,,,0.00,585.000000,,2013-05-20 16:33:00,
2013-05-20 09:42:00,83.0,38.0,-100.00,NNW,343,11.0,17.0,20,0.00,,,0.00,585.000000,,2013-05-20 16:42:00,
2013-05-20 10:12:00,87.0,37.0,-100.00,North,354,11.0,20.0,17,0.00,,,0.00,804.000000,,2013-05-20 17:12:00,
2013-05-20 10:22:00,87.0,37.0,-100.00,North,354,11.0,20.0,17,0.00,,,0.00,804.000000,,2013-05-20 17:22:00,
2013-05-20 10:32:00,87.0,37.0,-100.00,North,354,11.0,20.0,17,0.00,,,0.00,804.000000,,2013-05-20 17:32:00,
2013-05-20 10:45:00,87.0,37.0,-100.00,North,354,11.0,20.0,17,0.00,,,0.00,804.000000,,2013-05-20 17:45:00,
2013-05-20 11:12:00,90.0,33.0,-100.00,North,10,13.0,20.0,13,0.00,,,0.00,980.000000,,2013-05-20 18:12:00,
2013-05-20 11:23:00,90.0,33.0,-100.00,North,10,13.0,20.0,13,0.00,,,0.00,980.000000,,2013-05-20 18:23:00,
2013-05-20 11:32:00,90.0,33.0,-100.00,North,10,13.0,20.0,13,0.00,,,0.00,980.000000,,2013-05-20 18:32:00,
2013-05-20 11:41:00,90.0,33.0,-100.00,North,10,13.0,20.0,13,0.00,,,0.00,980.000000,,2013-05-20 18:41:00,
2013-05-20 12:11:00,91.0,31.0,-100.00,NNE,13,14.0,22.0,12,0.00,,,0.00,1090.000000,,2013-05-20 19:11:00,
2013-05-20 12:21:00,91.0,31.0,-100.00,NNE,13,14.0,22.0,12,0.00,,,0.00,1090.000000,,2013-05-20 19:21:00,
2013-05-20 12:32:00,91.0,31.0,-100.00,NNE,13,14.0,22.0,12,0.00,,,0.00,1090.000000,,2013-05-20 19:32:00,
2013-05-20 12:41:00,91.0,31.0,-100.00,NNE,13,14.0,22.0,12,0.00,,,0.00,1090.000000,,2013-05-20 19:41:00,
2013-05-20 13:12:00,93.0,31.0,-100.00,North,354,13.0,25.0,11,0.00,,,0.00,1134.000000,,2013-05-20 20:12:00,
2013-05-20 13:21:00,93.0,31.0,-100.00,North,354,13.0,25.0,11,0.00,,,0.00,1134.000000,,2013-05-20 20:21:00,
2013-05-20 13:32:00,93.0,31.0,-100.00,North,354,13.0,25.0,11,0.00,,,0.00,1134.000000,,2013-05-20 20:32:00,
2013-05-20 13:42:00,93.0,31.0,-100.00,North,354,13.0,25.0,11,0.00,,,0.00,1134.000000,,2013-05-20 20:42:00,
2013-05-20 14:11:00,93.0,31.0,-100.00,North,3,13.0,22.0,11,0.00,,,0.00,1116.000000,,2013-05-20 21:11:00,
2013-05-20 14:21:00,93.0,31.0,-100.00,North,3,13.0,22.0,11,0.00,,,0.00,1116.000000,,2013-05-20 21:21:00,
2013-05-20 14:32:00,93.0,31.0,-100.00,North,3,13.0,22.0,11,0.00,,,0.00,1116.000000,,2013-05-20 21:32:00,
2013-05-20 14:43:00,93.0,31.0,-100.00,North,3,13.0,22.0,11,0.00,,,0.00,1116.000000,,2013-05-20 21:43:00,
2013-05-20 15:12:00,94.0,31.0,-100.00,North,357,13.0,24.0,11,0.00,,,0.00,1030.000000,,2013-05-20 22:12:00,
2013-05-20 15:23:00,94.0,31.0,-100.00,North,357,13.0,24.0,11,0.00,,,0.00,1030.000000,,2013-05-20 22:23:00,
2013-05-20 15:33:00,94.0,31.0,-100.00,North,357,13.0,24.0,11,0.00,,,0.00,1030.000000,,2013-05-20 22:33:00,
2013-05-20 15:42:00,94.0,31.0,-100.00,North,357,13.0,24.0,11,0.00,,,0.00,1030.000000,,2013-05-20 22:42:00,
2013-05-20 16:12:00,95.0,30.0,-100.00,North,10,12.0,23.0,10,0.00,,,0.00,879.000000,,2013-05-20 23:12:00,
2013-05-20 16:22:00,95.0,30.0,-100.00,North,10,12.0,23.0,10,0.00,,,0.00,879.000000,,2013-05-20 23:22:00,
2013-05-20 16:32:00,95.0,30.0,-100.00,North,10,12.0,23.0,10,0.00,,,0.00,879.000000,,2013-05-20 23:32:00,
2013-05-20 16:42:00,95.0,30.0,-100.00,North,10,12.0,23.0,10,0.00,,,0.00,879.000000,,2013-05-20 23:42:00,
2013-05-20 17:11:00,95.0,27.0,-100.00,North,358,11.0,18.0,9,0.00,,,0.00,675.000000,,2013-05-21 00:11:00,
2013-05-20 17:21:00,95.0,27.0,-100.00,North,358,11.0,18.0,9,0.00,,,0.00,675.000000,,2013-05-21 00:21:00,
2013-05-20 17:31:00,95.0,27.0,-100.00,North,358,11.0,18.0,9,0.00,,,0.00,675.000000,,2013-05-21 00:31:00,
2013-05-20 17:41:00,95.0,27.0,-100.00,North,358,11.0,18.0,9,0.00,,,0.00,675.000000,,2013-05-21 00:41:00,
2013-05-20 18:11:00,94.0,29.0,-100.00,NNE,13,8.0,18.0,10,0.00,,,0.00,444.000000,,2013-05-21 01:11:00,
2013-05-20 18:21:00,94.0,29.0,-100.00,NNE,13,8.0,18.0,10,0.00,,,0.00,444.000000,,2013-05-21 01:21:00,
2013-05-20 18:32:00,94.0,29.0,-100.00,NNE,13,8.0,18.0,10,0.00,,,0.00,444.000000,,2013-05-21 01:32:00,
2013-05-20 18:42:00,94.0,29.0,-100.00,NNE,13,8.0,18.0,10,0.00,,,0.00,444.000000,,2013-05-21 01:42:00,
2013-05-20 19:11:00,92.0,36.0,-100.00,NNW,344,4.0,13.0,14,0.00,,,0.00,211.000000,,2013-05-21 02:11:00,
2013-05-20 19:41:00,92.0,36.0,-100.00,NNW,344,4.0,13.0,14,0.00,,,0.00,211.000000,,2013-05-21 02:41:00,
2013-05-20 20:11:00,82.0,36.0,-100.00,NNW,344,6.0,7.0,19,0.00,,,0.00,29.000000,,2013-05-21 03:11:00,
2013-05-20 21:12:00,72.0,37.0,-100.00,NW,318,5.0,7.0,28,-99.99,,,0.00,0.000000,,2013-05-21 04:12:00,
2013-05-20 22:12:00,67.0,35.0,-100.00,NW,311,5.0,7.0,30,-99.99,,,0.00,0.000000,,2013-05-21 05:12:00,
2013-05-20 22:21:00,67.0,35.0,-100.00,NW,311,5.0,7.0,30,-99.99,,,0.00,0.000000,,2013-05-21 05:21:00,
2013-05-20 23:12:00,72.0,26.0,-100.00,NNW,342,6.0,8.0,18,-99.99,,,0.00,0.000000,,2013-05-21 06:12:00,
2013-05-20 23:21:00,72.0,26.0,-100.00,NNW,342,6.0,8.0,18,-99.99,,,0.00,0.000000,,2013-05-21 06:21:00,